Time;durP1;ratioP1;P1;durP2;ratioP2;P2;SDS_P1;SDS_P2;PMS_P1;PMS_P2;Temp;Humidity;BMP_temperature;BMP_pressure;BME280_temperature;BME280_humidity;BME280_pressure;Samples;Min_cycle;Max_cycle;Signal;HPM_P1;HPM_P2
2022/04/12 00:01:22;323016.00;1.08;557.48;0.00;0.00;0.62;;;;;15.60;1.00;;;;;;2288449;60;1073;-88
2022/04/12 00:03:49;347560.00;1.16;599.67;0.00;0.00;0.62;;;;;15.30;1.00;;;;;;2288044;60;1123;-88
2022/04/12 00:06:16;554327.00;1.85;955.42;0.00;0.00;0.62;;;;;15.30;1.00;;;;;;2288278;60;941;-88
2022/04/12 00:08:43;496929.00;1.66;856.54;0.00;0.00;0.62;;;;;15.60;1.00;;;;;;2288285;60;2007;-88
2022/04/12 00:11:10;381397.00;1.27;657.83;15798.00;0.05;27.99;;;;;15.80;1.00;;;;;;2288415;60;1130;-89
2022/04/12 00:13:39;584107.00;1.95;1006.79;0.00;0.00;0.62;;;;;16.00;1.00;;;;;;2288768;60;1041;-88
2022/04/12 00:16:06;426979.00;1.42;736.19;5434.00;0.02;10.04;;;;;16.10;1.00;;;;;;2289128;60;1180;-88
2022/04/12 00:21:16;106841.00;0.36;185.38;0.00;0.00;0.62;;;;;15.70;1.00;;;;;;2289136;60;669;-91
2022/04/12 00:23:43;619084.00;2.06;1067.18;13594.00;0.05;24.18;;;;;15.40;1.00;;;;;;2289044;60;1157;-88
2022/04/12 00:26:10;876292.00;2.92;1514.52;0.00;0.00;0.62;;;;;15.60;1.00;;;;;;2289052;60;1762;-88
2022/04/12 00:28:40;558302.00;1.86;962.27;13884.00;0.05;24.68;;;;;15.60;1.00;;;;;;2288991;60;2014;-86
2022/04/12 00:31:07;598504.00;2.00;1031.64;0.00;0.00;0.62;;;;;15.30;1.00;;;;;;2289042;60;1341;-87
2022/04/12 00:33:35;649232.00;2.16;1119.31;14840.00;0.05;26.33;;;;;14.90;1.00;;;;;;2288983;60;1758;-86
2022/04/12 00:36:04;412512.00;1.38;711.32;13070.00;0.04;23.27;;;;;14.80;1.00;;;;;;2289019;60;1079;-87
2022/04/12 00:38:33;293009.00;0.98;505.90;3231.00;0.01;6.22;;;;;14.90;1.00;;;;;;2288924;60;1316;-89
2022/04/12 00:41:00;298595.00;1.00;515.50;11454.00;0.04;20.47;;;;;14.60;1.00;;;;;;2288952;60;1626;-88
2022/04/12 00:43:29;526276.00;1.75;907.08;0.00;0.00;0.62;;;;;14.60;1.00;;;;;;2289016;60;1017;-88
2022/04/12 00:46:00;306408.00;1.02;528.94;0.00;0.00;0.62;;;;;14.80;1.00;;;;;;2288971;60;1115;-87
2022/04/12 00:48:27;424662.00;1.42;732.21;0.00;0.00;0.62;;;;;14.50;1.00;;;;;;2289000;60;2012;-87
2022/04/12 00:50:55;519875.00;1.73;896.05;17024.00;0.06;30.12;;;;;14.60;1.00;;;;;;2288983;60;1126;-87
2022/04/12 00:53:22;557651.00;1.86;961.15;81283.00;0.27;141.25;;;;;14.30;1.00;;;;;;2288997;60;1228;-87
2022/04/12 00:55:50;437820.00;1.46;754.83;42140.00;0.14;73.59;;;;;14.50;1.00;;;;;;2288976;60;1122;-90
2022/04/12 00:58:18;348605.00;1.16;601.46;0.00;0.00;0.62;;;;;14.30;1.00;;;;;;2288856;60;1380;-88
2022/04/12 01:00:45;276994.00;0.92;478.37;16087.00;0.05;28.49;;;;;14.20;1.00;;;;;;2289012;60;1090;-88
2022/04/12 01:03:13;252691.00;0.84;436.58;11015.00;0.04;19.71;;;;;14.60;1.00;;;;;;2288961;60;993;-89
2022/04/12 01:05:40;311049.00;1.04;536.91;0.00;0.00;0.62;;;;;14.50;1.00;;;;;;2288969;60;1123;-89
2022/04/12 01:08:07;402300.00;1.34;693.76;16308.00;0.05;28.88;;;;;14.40;1.00;;;;;;2288867;60;2012;-87
2022/04/12 01:10:35;306154.00;1.02;528.50;0.00;0.00;0.62;;;;;14.70;1.00;;;;;;2288793;60;1644;-88
2022/04/12 01:13:03;459518.00;1.53;792.16;22239.00;0.07;39.15;;;;;14.60;1.00;;;;;;2288957;60;1140;-88
2022/04/12 01:15:30;469992.00;1.57;810.18;0.00;0.00;0.62;;;;;14.30;1.00;;;;;;2288842;60;1393;-88
2022/04/12 01:17:58;461791.00;1.54;796.07;0.00;0.00;0.62;;;;;14.30;1.00;;;;;;2288853;60;1383;-88
2022/04/12 01:20:29;411755.00;1.37;710.01;9407.00;0.03;16.92;;;;;14.50;1.00;;;;;;2288878;60;1280;-89
2022/04/12 01:23:08;343781.00;1.15;593.17;6484.00;0.02;11.86;;;;;14.50;1.00;;;;;;2288882;60;1138;-88
2022/04/12 01:25:37;145429.00;0.48;251.93;0.00;0.00;0.62;;;;;14.50;1.00;;;;;;2288777;60;1627;-89
2022/04/12 01:28:05;155303.00;0.52;268.95;0.00;0.00;0.62;;;;;14.30;1.00;;;;;;2288808;60;1995;-88
2022/04/12 01:30:32;371543.00;1.24;640.89;27710.00;0.09;48.62;;;;;14.00;1.00;;;;;;2288831;60;1109;-87
2022/04/12 01:32:59;245814.00;0.82;424.75;0.00;0.00;0.62;;;;;13.40;1.00;;;;;;2288874;60;1038;-87
2022/04/12 01:35:26;274865.00;0.92;474.71;23579.00;0.08;41.47;;;;;13.40;1.00;;;;;;2288903;60;1672;-88
2022/04/12 01:37:53;124181.00;0.41;215.29;0.00;0.00;0.62;;;;;13.80;1.00;;;;;;2288686;60;1265;-86
2022/04/12 01:40:20;72000.00;0.24;125.22;0.00;0.00;0.62;;;;;13.50;1.00;;;;;;2288777;60;1806;-87
2022/04/12 01:42:50;180318.00;0.60;312.04;45562.00;0.15;79.51;;;;;13.60;1.00;;;;;;2288851;60;989;-87
2022/04/12 01:45:17;133286.00;0.44;231.00;0.00;0.00;0.62;;;;;13.40;1.00;;;;;;2288749;60;1669;-88
2022/04/12 01:47:44;26893.00;0.09;47.20;0.00;0.00;0.62;;;;;13.50;1.00;;;;;;2288677;60;1346;-87
2022/04/12 01:50:11;0.00;0.00;0.62;0.00;0.00;0.62;;;;;13.70;1.00;;;;;;2288672;60;1987;-85
2022/04/12 01:52:38;48275.00;0.16;84.20;0.00;0.00;0.62;;;;;13.90;1.00;;;;;;2288700;60;1107;-86
2022/04/12 01:55:06;54694.00;0.18;95.30;0.00;0.00;0.62;;;;;13.70;1.00;;;;;;2288716;60;1505;-88
2022/04/12 01:57:33;44099.00;0.15;76.98;0.00;0.00;0.62;;;;;13.60;1.00;;;;;;2288600;60;1379;-87
2022/04/12 02:00:02;0.00;0.00;0.62;0.00;0.00;0.62;;;;;13.80;1.00;;;;;;2288681;60;1046;-87
2022/04/12 02:02:29;115063.00;0.38;199.57;0.00;0.00;0.62;;;;;13.90;1.00;;;;;;2288738;60;989;-88
2022/04/12 02:04:56;114788.00;0.38;199.09;0.00;0.00;0.62;;;;;14.00;1.00;;;;;;2288569;60;1029;-87
2022/04/12 02:07:23;31167.00;0.10;54.60;0.00;0.00;0.62;;;;;14.20;1.00;;;;;;2288633;60;1314;-88
2022/04/12 02:09:50;25721.00;0.09;45.18;0.00;0.00;0.62;;;;;14.40;1.00;;;;;;2288729;60;1917;-88
2022/04/12 02:12:16;0.00;0.00;0.62;0.00;0.00;0.62;;;;;14.50;1.00;;;;;;2288656;60;1094;-87
2022/04/12 02:14:43;86513.00;0.29;150.29;0.00;0.00;0.62;;;;;14.30;1.00;;;;;;2288562;60;1047;-88
2022/04/12 02:17:12;11573.00;0.04;20.67;0.00;0.00;0.62;;;;;14.20;1.00;;;;;;2288681;60;1076;-88
2022/04/12 02:19:38;44918.00;0.15;78.40;0.00;0.00;0.62;;;;;13.80;1.00;;;;;;2288750;60;1277;-89
2022/04/12 02:22:07;35342.00;0.12;61.83;0.00;0.00;0.62;;;;;13.90;1.00;;;;;;2288681;60;926;-88
2022/04/12 02:24:34;14796.00;0.05;26.26;0.00;0.00;0.62;;;;;13.90;1.00;;;;;;2288582;60;1049;-88
2022/04/12 02:27:01;0.00;0.00;0.62;0.00;0.00;0.62;;;;;14.30;1.00;;;;;;2288715;60;1031;-88
2022/04/12 02:29:28;55103.00;0.18;96.01;0.00;0.00;0.62;;;;;14.10;1.00;;;;;;2288703;60;1913;-88
2022/04/12 02:31:55;17199.00;0.06;30.42;0.00;0.00;0.62;;;;;13.80;1.00;;;;;;2288742;60;1020;-88
2022/04/12 02:34:23;73631.00;0.25;128.03;0.00;0.00;0.62;;;;;13.50;1.00;;;;;;2288583;60;1470;-88
2022/04/12 02:36:50;312917.00;1.04;540.12;56645.00;0.19;98.68;;;;;13.90;1.00;;;;;;2288487;60;1752;-89
2022/04/12 02:39:17;38518.00;0.13;67.32;0.00;0.00;0.62;;;;;14.20;1.00;;;;;;2288544;60;1392;-86
2022/04/12 02:41:44;92321.00;0.31;160.32;0.00;0.00;0.62;;;;;14.50;1.00;;;;;;2288689;60;1027;-88
2022/04/12 02:44:11;150861.00;0.50;261.29;2644.00;0.01;5.20;;;;;14.00;1.00;;;;;;2288614;60;1161;-89
2022/04/12 02:46:38;88558.00;0.30;153.82;0.00;0.00;0.62;;;;;13.50;1.00;;;;;;2288637;60;1736;-89
2022/04/12 02:49:05;0.00;0.00;0.62;0.00;0.00;0.62;;;;;13.70;1.00;;;;;;2288598;60;1913;-88
2022/04/12 02:51:33;39162.00;0.13;68.44;0.00;0.00;0.62;;;;;14.20;1.00;;;;;;2288588;60;1134;-88
2022/04/12 02:54:00;23276.00;0.08;40.94;0.00;0.00;0.62;;;;;14.30;1.00;;;;;;2288566;60;1066;-87
2022/04/12 02:56:27;0.00;0.00;0.62;0.00;0.00;0.62;;;;;14.60;1.00;;;;;;2288569;60;1714;-88
2022/04/12 02:58:54;79725.00;0.27;138.56;0.00;0.00;0.62;;;;;14.20;1.00;;;;;;2288388;60;1386;-87
2022/04/12 03:01:21;165033.00;0.55;285.71;0.00;0.00;0.62;;;;;14.30;1.00;;;;;;2288589;60;1023;-88
2022/04/12 03:03:48;86274.00;0.29;149.87;0.00;0.00;0.62;;;;;14.10;1.00;;;;;;2288569;60;1000;-88
2022/04/12 03:06:15;0.00;0.00;0.62;0.00;0.00;0.62;;;;;14.10;1.00;;;;;;2288573;60;1525;-88
2022/04/12 03:08:43;99401.00;0.33;172.54;0.00;0.00;0.62;;;;;14.20;1.00;;;;;;2288494;60;2005;-89
2022/04/12 03:11:10;62267.00;0.21;108.40;0.00;0.00;0.62;;;;;14.00;1.00;;;;;;2288493;60;936;-88
2022/04/12 03:13:37;91409.00;0.30;158.74;0.00;0.00;0.62;;;;;13.90;1.00;;;;;;2288598;60;933;-88
2022/04/12 03:16:04;30783.00;0.10;53.94;0.00;0.00;0.62;;;;;13.90;1.00;;;;;;2288492;60;1172;-88
2022/04/12 03:18:31;77251.00;0.26;134.29;0.00;0.00;0.62;;;;;13.70;1.00;;;;;;2288466;60;1266;-87
2022/04/12 03:20:58;146526.00;0.49;253.82;56760.00;0.19;98.88;;;;;13.90;1.00;;;;;;2288432;60;1062;-87
2022/04/12 03:23:25;49885.00;0.17;86.99;0.00;0.00;0.62;;;;;14.00;1.00;;;;;;2288486;60;1497;-88
2022/04/12 03:25:53;15302.00;0.05;27.13;0.00;0.00;0.62;;;;;14.20;1.00;;;;;;2288453;60;999;-87
2022/04/12 03:28:20;33733.00;0.11;59.04;0.00;0.00;0.62;;;;;13.80;1.00;;;;;;2288464;60;2000;-87
2022/04/12 03:30:47;108938.00;0.36;189.00;0.00;0.00;0.62;;;;;13.50;1.00;;;;;;2288345;60;1050;-86
2022/04/12 03:33:14;94517.00;0.32;164.11;14730.00;0.05;26.14;;;;;13.30;1.00;;;;;;2288562;60;1026;-86
2022/04/12 03:35:42;23515.00;0.08;41.36;0.00;0.00;0.62;;;;;13.40;1.00;;;;;;2288511;60;955;-87
2022/04/12 03:38:09;33264.00;0.11;58.23;0.00;0.00;0.62;;;;;13.50;1.00;;;;;;2288396;60;1469;-87
2022/04/12 03:40:36;6025.00;0.02;11.06;0.00;0.00;0.62;;;;;13.90;1.00;;;;;;2288373;60;1093;-87
2022/04/12 03:43:06;0.00;0.00;0.62;0.00;0.00;0.62;;;;;14.10;1.00;;;;;;2288466;60;1101;-88
2022/04/12 03:45:34;28682.00;0.10;50.30;0.00;0.00;0.62;;;;;14.00;1.00;;;;;;2288366;60;1029;-88
2022/04/12 03:48:01;65790.00;0.22;114.48;0.00;0.00;0.62;;;;;13.90;1.00;;;;;;2288765;60;1284;-87
2022/04/12 03:50:28;71821.00;0.24;124.91;0.00;0.00;0.62;;;;;14.10;1.00;;;;;;2289020;60;2010;-88
2022/04/12 03:52:55;38209.00;0.13;66.79;0.00;0.00;0.62;;;;;14.10;1.00;;;;;;2289220;60;930;-88
2022/04/12 03:55:31;28320.00;0.09;49.68;0.00;0.00;0.62;;;;;13.90;1.00;;;;;;2289116;60;1600;-88
2022/04/12 03:57:59;6316.00;0.02;11.57;0.00;0.00;0.62;;;;;13.90;1.00;;;;;;2289161;60;1450;-91
2022/04/12 04:00:27;94858.00;0.32;164.70;0.00;0.00;0.62;;;;;13.70;1.00;;;;;;2289205;60;943;-88
2022/04/12 04:02:54;112552.00;0.38;195.23;0.00;0.00;0.62;;;;;14.10;1.00;;;;;;2289001;60;1174;-88
2022/04/12 04:05:22;11612.00;0.04;20.74;0.00;0.00;0.62;;;;;14.20;1.00;;;;;;2289175;60;1023;-89
2022/04/12 04:07:48;69740.00;0.23;121.31;0.00;0.00;0.62;;;;;14.50;1.00;;;;;;2289053;60;1613;-88
2022/04/12 04:10:16;146610.00;0.49;253.96;0.00;0.00;0.62;;;;;14.40;1.00;;;;;;2288954;60;1996;-90
2022/04/12 04:12:43;12339.00;0.04;22.00;0.00;0.00;0.62;;;;;13.90;1.00;;;;;;2289055;60;1057;-87
2022/04/12 04:15:13;96690.00;0.32;167.86;0.00;0.00;0.62;;;;;13.60;1.00;;;;;;2289146;60;1098;-86
2022/04/12 04:17:42;77664.00;0.26;135.00;0.00;0.00;0.62;;;;;13.40;1.00;;;;;;2289019;60;1317;-87
2022/04/12 04:20:11;191528.00;0.64;331.34;0.00;0.00;0.62;;;;;13.00;1.00;;;;;;2289094;60;1056;-88
2022/04/12 04:22:38;61448.00;0.20;106.98;0.00;0.00;0.62;;;;;12.80;1.00;;;;;;2289111;60;917;-88
2022/04/12 04:25:06;23337.00;0.08;41.05;0.00;0.00;0.62;;;;;12.70;1.00;;;;;;2289061;60;998;-88
2022/04/12 04:27:34;49004.00;0.16;85.46;0.00;0.00;0.62;;;;;12.60;1.00;;;;;;2288992;60;1518;-86
2022/04/12 04:30:03;165795.00;0.55;287.02;0.00;0.00;0.62;;;;;12.70;1.00;;;;;;2289021;60;2000;-87
2022/04/12 04:32:30;90375.00;0.30;156.96;0.00;0.00;0.62;;;;;13.20;1.00;;;;;;2289064;60;1237;-87
2022/04/12 04:34:58;78197.00;0.26;135.92;0.00;0.00;0.62;;;;;13.40;1.00;;;;;;2288979;60;1045;-87
2022/04/12 04:37:25;19146.00;0.06;33.79;0.00;0.00;0.62;;;;;12.80;1.00;;;;;;2288814;60;1300;-89
2022/04/12 04:39:52;60589.00;0.20;105.50;0.00;0.00;0.62;;;;;12.60;1.00;;;;;;2288993;60;1708;-86
2022/04/12 04:42:20;236775.00;0.79;409.20;0.00;0.00;0.62;;;;;12.50;1.00;;;;;;2288974;60;1070;-87
2022/04/12 04:44:47;40191.00;0.13;70.22;0.00;0.00;0.62;;;;;12.20;1.00;;;;;;2288985;60;1167;-86
2022/04/12 04:47:14;7419.00;0.02;13.48;0.00;0.00;0.62;;;;;12.70;1.00;;;;;;2288927;60;1689;-88
2022/04/12 04:49:41;425550.00;1.42;733.73;92068.00;0.31;159.88;;;;;13.00;1.00;;;;;;2288933;60;1992;-85
2022/04/12 04:52:09;4407.00;0.01;8.26;0.00;0.00;0.62;;;;;13.00;1.00;;;;;;2288944;60;1056;-87
2022/04/12 04:54:36;243856.00;0.81;421.38;83789.00;0.28;145.58;;;;;12.90;1.00;;;;;;2288831;60;1119;-86
2022/04/12 04:57:03;240647.00;0.80;415.86;28354.00;0.09;49.73;;;;;13.20;1.00;;;;;;2288821;60;1389;-86
2022/04/12 04:59:30;60623.00;0.20;105.55;0.00;0.00;0.62;;;;;13.00;1.00;;;;;;2288796;60;1355;-87
2022/04/12 05:01:57;250641.00;0.84;433.05;89526.00;0.30;155.49;;;;;13.20;1.00;;;;;;2288803;60;1042;-86
2022/04/12 05:04:24;81840.00;0.27;142.22;0.00;0.00;0.62;;;;;13.40;1.00;;;;;;2288941;60;1139;-88
2022/04/12 05:06:51;81486.00;0.27;141.60;0.00;0.00;0.62;;;;;13.30;1.00;;;;;;2288911;60;1079;-87
2022/04/12 05:09:19;51734.00;0.17;90.18;0.00;0.00;0.62;;;;;13.30;1.00;;;;;;2288816;60;2001;-88
2022/04/12 05:11:46;50110.00;0.17;87.38;0.00;0.00;0.62;;;;;13.40;1.00;;;;;;2288918;60;1008;-89
2022/04/12 05:14:13;882.00;0.00;2.15;0.00;0.00;0.62;;;;;13.20;1.00;;;;;;2288925;60;917;-89
2022/04/12 05:16:40;9998.00;0.03;17.95;0.00;0.00;0.62;;;;;13.00;1.00;;;;;;2288786;60;1097;-88
2022/04/12 05:19:06;24690.00;0.08;43.39;0.00;0.00;0.62;;;;;12.70;1.00;;;;;;2288796;60;1387;-87
2022/04/12 05:21:34;83072.00;0.28;144.34;0.00;0.00;0.62;;;;;12.60;1.00;;;;;;2288900;60;994;-88
2022/04/12 05:24:01;8043.00;0.03;14.56;0.00;0.00;0.62;;;;;12.40;1.00;;;;;;2288809;60;1113;-87
2022/04/12 05:26:30;18958.00;0.06;33.47;0.00;0.00;0.62;;;;;12.40;1.00;;;;;;2288727;60;1108;-87
2022/04/12 05:28:57;47615.00;0.16;83.06;0.00;0.00;0.62;;;;;12.70;1.00;;;;;;2288829;60;1370;-87
2022/04/12 05:31:23;9621.00;0.03;17.29;0.00;0.00;0.62;;;;;13.10;1.00;;;;;;2288911;60;1070;-86
2022/04/12 05:33:50;29932.00;0.10;52.47;0.00;0.00;0.62;;;;;13.90;1.00;;;;;;2288649;60;1039;-88
2022/04/12 05:36:17;158554.00;0.53;274.55;0.00;0.00;0.62;;;;;14.40;1.00;;;;;;2288796;60;981;-89
2022/04/12 05:38:44;135398.00;0.45;234.64;0.00;0.00;0.62;;;;;14.80;1.00;;;;;;2288787;60;1401;-88
2022/04/12 05:41:11;47495.00;0.16;82.85;0.00;0.00;0.62;;;;;15.20;1.00;;;;;;2288759;60;937;-86
2022/04/12 05:43:39;23564.00;0.08;41.44;0.00;0.00;0.62;;;;;15.50;1.00;;;;;;2288778;60;1243;-88
2022/04/12 05:46:06;11386.00;0.04;20.35;0.00;0.00;0.62;;;;;16.00;1.00;;;;;;2288633;60;1054;-87
2022/04/12 05:48:33;13744.00;0.05;24.44;0.00;0.00;0.62;;;;;16.60;1.00;;;;;;2288784;60;1416;-86
2022/04/12 05:51:00;0.00;0.00;0.62;0.00;0.00;0.62;;;;;17.20;1.00;;;;;;2288719;60;2016;-86
2022/04/12 05:53:28;26263.00;0.09;46.11;0.00;0.00;0.62;;;;;17.90;1.00;;;;;;2288684;60;1001;-87
2022/04/12 05:55:55;71055.00;0.24;123.58;0.00;0.00;0.62;;;;;18.40;1.00;;;;;;2288753;60;1039;-86
2022/04/12 05:58:22;19474.00;0.06;34.36;0.00;0.00;0.62;;;;;18.40;1.00;;;;;;2288632;60;1296;-84
2022/04/12 06:00:50;0.00;0.00;0.62;0.00;0.00;0.62;;;;;19.50;1.00;;;;;;2288789;60;940;-85
2022/04/12 06:03:17;197900.00;0.66;342.31;26809.00;0.09;47.06;;;;;20.10;1.00;;;;;;2288278;60;983;-83
2022/04/12 06:05:44;0.00;0.00;0.62;0.00;0.00;0.62;;;;;20.70;1.00;;;;;;2288784;60;1159;-86
2022/04/12 06:08:11;0.00;0.00;0.62;0.00;0.00;0.62;;;;;21.00;1.00;;;;;;2288534;60;1398;-86
2022/04/12 06:10:38;26140.00;0.09;45.90;0.00;0.00;0.62;;;;;21.20;1.00;;;;;;2288527;60;1996;-90
2022/04/12 06:13:05;10251.00;0.03;18.38;0.00;0.00;0.62;;;;;21.60;1.00;;;;;;2288760;60;1035;-87
2022/04/12 06:15:31;0.00;0.00;0.62;0.00;0.00;0.62;;;;;21.90;1.00;;;;;;2288695;60;1111;-86
2022/04/12 06:18:00;88751.00;0.30;154.15;0.00;0.00;0.62;;;;;20.90;1.00;;;;;;2288613;60;1354;-88
2022/04/12 06:20:26;103490.00;0.34;179.60;2423.00;0.01;4.82;;;;;20.70;1.00;;;;;;2288712;60;1001;-85
2022/04/12 06:22:54;9625.00;0.03;17.30;0.00;0.00;0.62;;;;;20.50;1.00;;;;;;2288710;60;1082;-88
2022/04/12 06:25:21;0.00;0.00;0.62;0.00;0.00;0.62;;;;;20.60;1.00;;;;;;2288666;60;1066;-87
2022/04/12 06:27:51;0.00;0.00;0.62;0.00;0.00;0.62;;;;;20.90;1.00;;;;;;2288660;60;1305;-86
2022/04/12 06:30:20;88420.00;0.29;153.58;0.00;0.00;0.62;;;;;20.90;1.00;;;;;;2288658;60;1984;-87
2022/04/12 06:32:47;0.00;0.00;0.62;0.00;0.00;0.62;;;;;20.90;1.00;;;;;;2288620;60;1180;-87
2022/04/12 06:35:16;0.00;0.00;0.62;0.00;0.00;0.62;;;;;21.20;1.00;;;;;;2288616;60;1126;-88
2022/04/12 06:37:45;110973.00;0.37;192.51;0.00;0.00;0.62;;;;;22.00;1.00;;;;;;2288391;60;1268;-87
2022/04/12 06:40:15;9151.00;0.03;16.48;0.00;0.00;0.62;;;;;22.10;1.00;;;;;;2288669;60;1063;-87
2022/04/12 06:42:42;11240.00;0.04;20.10;0.00;0.00;0.62;;;;;21.70;1.00;;;;;;2288578;60;1221;-87
2022/04/12 06:45:12;219570.00;0.73;379.60;88143.00;0.29;153.10;;;;;21.70;1.00;;;;;;2288700;60;1002;-85
2022/04/12 06:47:39;8963.00;0.03;16.15;0.00;0.00;0.62;;;;;21.60;1.00;;;;;;2288590;60;1395;-85
2022/04/12 06:50:07;55202.00;0.18;96.18;0.00;0.00;0.62;;;;;21.30;1.00;;;;;;2288588;60;2004;-86
2022/04/12 06:52:36;173222.00;0.58;299.82;11087.00;0.04;19.83;;;;;21.70;1.00;;;;;;2288472;60;1114;-86
2022/04/12 06:55:04;49285.00;0.16;85.95;0.00;0.00;0.62;;;;;22.10;1.00;;;;;;2288519;60;1022;-86
2022/04/12 06:57:32;316202.00;1.05;545.77;22274.00;0.07;39.21;;;;;21.80;1.00;;;;;;2288635;60;1370;-86
2022/04/12 07:00:02;331287.00;1.10;571.70;74421.00;0.25;129.40;;;;;21.90;1.00;;;;;;2288596;60;1058;-86
2022/04/12 07:02:29;0.00;0.00;0.62;0.00;0.00;0.62;;;;;21.80;1.00;;;;;;2288560;60;1039;-87
2022/04/12 07:04:56;276631.00;0.92;477.75;34557.00;0.12;60.47;;;;;22.30;1.00;;;;;;2288593;60;977;-86
2022/04/12 07:07:23;0.00;0.00;0.62;0.00;0.00;0.62;;;;;22.80;1.00;;;;;;2288510;60;1425;-87
2022/04/12 07:09:51;0.00;0.00;0.62;0.00;0.00;0.62;;;;;23.00;1.00;;;;;;2288580;60;1923;-86
2022/04/12 07:12:18;25506.00;0.09;44.80;0.00;0.00;0.62;;;;;22.90;1.00;;;;;;2288515;60;1007;-87
2022/04/12 07:14:45;13822.00;0.05;24.57;0.00;0.00;0.62;;;;;23.20;1.00;;;;;;2288553;60;1125;-87
2022/04/12 07:17:12;0.00;0.00;0.62;0.00;0.00;0.62;;;;;23.70;1.00;;;;;;2288513;60;1240;-87
2022/04/12 07:19:39;5289.00;0.02;9.79;0.00;0.00;0.62;;;;;24.00;1.00;;;;;;2288519;60;1279;-88
2022/04/12 07:22:07;58216.00;0.19;101.39;0.00;0.00;0.62;;;;;23.20;1.00;;;;;;2288865;60;1060;-87
2022/04/12 07:24:34;0.00;0.00;0.62;0.00;0.00;0.62;;;;;23.50;1.00;;;;;;2289273;60;1190;-87
2022/04/12 07:27:03;84672.00;0.28;147.11;0.00;0.00;0.62;;;;;23.10;1.00;;;;;;2289268;60;1089;-88
2022/04/12 07:29:30;36537.00;0.12;63.90;0.00;0.00;0.62;;;;;22.90;1.00;;;;;;2289114;60;1318;-87
2022/04/12 07:31:58;111428.00;0.37;193.29;17180.00;0.06;30.39;;;;;23.00;1.00;;;;;;2289028;60;2013;-87
2022/04/12 07:34:24;74512.00;0.25;129.56;0.00;0.00;0.62;;;;;22.80;1.00;;;;;;2289089;60;1477;-87
2022/04/12 07:36:54;20344.00;0.07;35.87;0.00;0.00;0.62;;;;;23.10;1.00;;;;;;2289194;60;1113;-86
2022/04/12 07:39:22;369144.00;1.23;636.77;55525.00;0.19;96.74;;;;;23.10;1.00;;;;;;2289205;60;1455;-87
2022/04/12 07:41:49;293761.00;0.98;507.19;38246.00;0.13;66.85;;;;;23.40;1.00;;;;;;2289105;60;1019;-87
2022/04/12 07:44:18;0.00;0.00;0.62;0.00;0.00;0.62;;;;;23.10;1.00;;;;;;2289109;60;1151;-85
2022/04/12 07:46:48;11678.00;0.04;20.86;0.00;0.00;0.62;;;;;23.10;1.00;;;;;;2289200;60;1110;-86
2022/04/12 07:49:16;69034.00;0.23;120.09;0.00;0.00;0.62;;;;;22.60;1.00;;;;;;2289030;60;1303;-86
2022/04/12 07:51:43;69424.00;0.23;120.77;0.00;0.00;0.62;;;;;22.60;1.00;;;;;;2289108;60;1935;-88
2022/04/12 07:54:10;34087.00;0.11;59.66;0.00;0.00;0.62;;;;;22.70;1.00;;;;;;2289038;60;1673;-87
2022/04/12 07:56:39;808.00;0.00;2.02;0.00;0.00;0.62;;;;;22.70;1.00;;;;;;2289142;60;1181;-87
2022/04/12 07:59:06;77857.00;0.26;135.34;5114.00;0.02;9.48;;;;;22.80;1.00;;;;;;2289033;60;1327;-87
2022/04/12 08:01:34;32850.00;0.11;57.52;0.00;0.00;0.62;;;;;22.70;1.00;;;;;;2289110;60;1606;-87
2022/04/12 08:04:01;260190.00;0.87;449.48;0.00;0.00;0.62;;;;;23.10;1.00;;;;;;2289122;60;1088;-88
2022/04/12 08:06:28;0.00;0.00;0.62;0.00;0.00;0.62;;;;;23.50;1.00;;;;;;2288951;60;1433;-88
2022/04/12 08:08:55;245385.00;0.82;424.01;12982.00;0.04;23.12;;;;;23.50;1.00;;;;;;2289127;60;1390;-87
2022/04/12 08:11:22;4040.00;0.01;7.62;0.00;0.00;0.62;;;;;23.30;1.00;;;;;;2289093;60;1998;-86
2022/04/12 08:13:49;0.00;0.00;0.62;0.00;0.00;0.62;;;;;22.90;1.00;;;;;;2289149;60;1109;-86
2022/04/12 08:16:16;52433.00;0.17;91.39;0.00;0.00;0.62;;;;;22.90;1.00;;;;;;2289134;60;1037;-89
2022/04/12 08:18:45;59874.00;0.20;104.26;0.00;0.00;0.62;;;;;22.80;1.00;;;;;;2289113;60;1266;-88
2022/04/12 08:21:12;222750.00;0.74;385.08;0.00;0.00;0.62;;;;;23.30;1.00;;;;;;2289002;60;1649;-89
2022/04/12 08:23:39;0.00;0.00;0.62;0.00;0.00;0.62;;;;;23.70;1.00;;;;;;2289057;60;1008;-87
2022/04/12 08:26:07;91748.00;0.31;159.33;0.00;0.00;0.62;;;;;23.50;1.00;;;;;;2289054;60;1063;-88
2022/04/12 08:28:34;77426.00;0.26;134.59;0.00;0.00;0.62;;;;;23.30;1.00;;;;;;2289088;60;1378;-87
2022/04/12 08:31:01;126997.00;0.42;220.15;0.00;0.00;0.62;;;;;22.90;1.00;;;;;;2288889;60;2005;-90
2022/04/12 08:33:28;152112.00;0.51;263.45;32607.00;0.11;57.10;;;;;23.00;1.00;;;;;;2288897;60;1008;-87
2022/04/12 08:35:56;104776.00;0.35;181.82;0.00;0.00;0.62;;;;;22.40;1.00;;;;;;2289060;60;1049;-88
2022/04/12 08:38:23;0.00;0.00;0.62;0.00;0.00;0.62;;;;;22.70;1.00;;;;;;2288958;60;1676;-87
2022/04/12 08:40:54;361146.00;1.20;623.02;89011.00;0.30;154.60;;;;;22.80;1.00;;;;;;2288995;60;1033;-88
2022/04/12 08:43:25;113365.00;0.38;196.64;0.00;0.00;0.62;;;;;22.60;1.00;;;;;;2288920;60;1057;-86
2022/04/12 08:45:53;37451.00;0.12;65.48;0.00;0.00;0.62;;;;;22.30;1.00;;;;;;2289015;60;1106;-89
2022/04/12 08:48:20;101429.00;0.34;176.04;0.00;0.00;0.62;;;;;22.20;1.00;;;;;;2288848;60;1297;-87
2022/04/12 08:50:48;35189.00;0.12;61.56;0.00;0.00;0.62;;;;;22.10;1.00;;;;;;2288991;60;1992;-88
2022/04/12 08:53:18;34831.00;0.12;60.94;0.00;0.00;0.62;;;;;21.80;1.00;;;;;;2289038;60;968;-87
2022/04/12 08:55:45;0.00;0.00;0.62;0.00;0.00;0.62;;;;;21.40;1.00;;;;;;2288930;60;1232;-86
2022/04/12 08:58:12;2718.00;0.01;5.33;0.00;0.00;0.62;;;;;21.20;1.00;;;;;;2288868;60;1391;-87
2022/04/12 09:00:39;144593.00;0.48;250.49;0.00;0.00;0.62;;;;;21.60;1.00;;;;;;2288866;60;1086;-88
2022/04/12 09:03:06;35200.00;0.12;61.58;0.00;0.00;0.62;;;;;22.30;1.00;;;;;;2288924;60;1114;-87
2022/04/12 09:05:34;49612.00;0.17;86.52;0.00;0.00;0.62;;;;;22.40;1.00;;;;;;2288941;60;1043;-88
2022/04/12 09:08:01;0.00;0.00;0.62;0.00;0.00;0.62;;;;;22.30;1.00;;;;;;2288879;60;1386;-87
2022/04/12 09:10:37;50635.00;0.17;88.28;0.00;0.00;0.62;;;;;22.40;1.00;;;;;;2288746;60;1911;-88
2022/04/12 09:13:11;0.00;0.00;0.62;0.00;0.00;0.62;;;;;22.30;1.00;;;;;;2288885;60;1067;-88
2022/04/12 09:15:46;68937.00;0.23;119.92;0.00;0.00;0.62;;;;;22.10;1.00;;;;;;2288868;60;997;-88
2022/04/12 09:18:13;64289.00;0.21;111.89;0.00;0.00;0.62;;;;;22.50;1.00;;;;;;2288910;60;1400;-86
2022/04/12 09:20:42;140821.00;0.47;243.99;8263.00;0.03;14.94;;;;;22.30;1.00;;;;;;2288933;60;1092;-87
2022/04/12 09:23:16;279535.00;0.93;482.74;0.00;0.00;0.62;;;;;22.30;1.00;;;;;;2288920;60;1035;-89
2022/04/12 09:25:55;122236.00;0.41;211.94;0.00;0.00;0.62;;;;;22.20;1.00;;;;;;2288842;60;984;-88
2022/04/12 09:28:22;127175.00;0.42;220.46;0.00;0.00;0.62;;;;;22.70;1.00;;;;;;2288909;60;1308;-88
2022/04/12 09:30:55;343852.00;1.15;593.29;24327.00;0.08;42.76;;;;;22.60;1.00;;;;;;2288797;60;2000;-88
2022/04/12 09:33:38;218534.00;0.73;377.82;0.00;0.00;0.62;;;;;22.50;1.00;;;;;;2288818;60;1217;-88
2022/04/12 09:36:06;66046.00;0.22;114.93;0.00;0.00;0.62;;;;;22.40;1.00;;;;;;2288729;60;1105;-88
2022/04/12 09:38:34;162576.00;0.54;281.48;0.00;0.00;0.62;;;;;22.40;1.00;;;;;;2288734;60;1405;-87
2022/04/12 09:41:20;251783.00;0.84;435.02;0.00;0.00;0.62;;;;;22.60;1.00;;;;;;2288850;60;1022;-88
2022/04/12 09:43:55;279999.00;0.93;483.54;58694.00;0.20;102.22;;;;;22.70;1.00;;;;;;2288825;60;991;-90
2022/04/12 09:48:53;241699.00;0.81;417.67;59289.00;0.20;103.25;;;;;21.00;1.00;;;;;;2290716;60;1409;-86
2022/04/12 09:51:23;0.00;0.00;0.62;0.00;0.00;0.62;;;;;21.10;1.00;;;;;;2288724;60;1911;-86
2022/04/12 09:53:51;0.00;0.00;0.62;0.00;0.00;0.62;;;;;21.40;1.00;;;;;;2288634;60;1007;-88
2022/04/12 09:56:22;0.00;0.00;0.62;0.00;0.00;0.62;;;;;21.50;1.00;;;;;;2288800;60;1027;-88
2022/04/12 09:58:51;80737.00;0.27;140.31;0.00;0.00;0.62;;;;;21.30;1.00;;;;;;2288727;60;1304;-85
2022/04/12 10:01:18;166988.00;0.56;289.08;0.00;0.00;0.62;;;;;21.20;1.00;;;;;;2288729;60;1157;-88
2022/04/12 10:03:48;158492.00;0.53;274.44;0.00;0.00;0.62;;;;;21.00;1.00;;;;;;2312782;40;3622;-85
2022/04/12 10:06:19;427912.00;1.43;737.80;39147.00;0.13;68.41;;;;;20.50;1.00;;;;;;2288579;60;969;-87
2022/04/12 10:23:51;428208.00;1.43;738.30;4699.00;0.02;8.76;;;;;22.20;1.00;;;;;;1995337;56;3560;-87
2022/04/12 10:26:21;208063.00;0.69;359.80;0.00;0.00;0.62;;;;;22.10;1.00;;;;;;2288511;60;1044;-90
2022/04/12 10:28:52;20240.00;0.07;35.69;0.00;0.00;0.62;;;;;22.20;1.00;;;;;;2288618;60;1399;-85